Time;durP1;ratioP1;P1;durP2;ratioP2;P2;SDS_P1;SDS_P2;PMS_P1;PMS_P2;Temp;Humidity;BMP_temperature;BMP_pressure;BME280_temperature;BME280_humidity;BME280_pressure;Samples;Min_cycle;Max_cycle;Signal;HPM_P1;HPM_P2
2022/06/17 00:00:15;;;;;;;2.20;2.00;;;;;;;16.40;61.68;102273.03;5113171;28;20391;-76
2022/06/17 00:02:40;;;;;;;2.10;2.00;;;;;;;16.35;61.61;102268.75;5113090;28;20050;-75
2022/06/17 00:05:07;;;;;;;2.40;2.20;;;;;;;16.35;61.37;102260.88;5112534;28;20027;-76
2022/06/17 00:07:32;;;;;;;2.42;2.22;;;;;;;16.34;61.39;102261.78;5113497;28;20076;-76
2022/06/17 00:09:58;;;;;;;2.17;2.03;;;;;;;16.34;62.28;102269.63;5113234;28;20472;-76
2022/06/17 00:12:23;;;;;;;2.27;2.07;;;;;;;16.32;61.90;102260.94;5112448;28;20038;-76
2022/06/17 00:17:32;;;;;;;2.53;2.20;;;;;;;16.23;62.34;102252.34;5112881;28;20039;-76
2022/06/17 00:19:57;;;;;;;2.10;2.00;;;;;;;16.24;62.05;102254.09;5112716;28;20023;-76
2022/06/17 00:22:22;;;;;;;2.00;1.90;;;;;;;16.18;63.23;102266.41;5113250;28;20474;-76
2022/06/17 00:24:52;;;;;;;2.17;1.97;;;;;;;16.17;62.33;102277.78;5112337;28;20051;-76
2022/06/17 00:27:17;;;;;;;2.20;2.00;;;;;;;16.16;62.43;102278.66;5113618;28;20040;-76
2022/06/17 00:29:42;;;;;;;2.20;2.00;;;;;;;16.16;62.25;102273.41;5112659;28;20050;-76
2022/06/17 00:32:07;;;;;;;2.07;1.97;;;;;;;16.15;63.28;102281.31;5112081;28;20114;-76
2022/06/17 00:34:33;;;;;;;3.00;2.10;;;;;;;16.11;62.88;102283.09;5116305;28;20027;-76
2022/06/17 00:37:00;;;;;;;2.30;2.10;;;;;;;16.10;62.61;102270.03;5116850;28;20421;-76
2022/06/17 00:39:29;;;;;;;2.30;2.10;;;;;;;16.06;63.02;102269.22;5116542;28;20418;-75
2022/06/17 00:42:03;;;;;;;2.20;2.00;;;;;;;16.02;63.17;102276.25;5116364;28;20467;-76
2022/06/17 00:44:43;;;;;;;2.17;2.00;;;;;;;15.98;63.10;102277.19;5117164;28;20038;-76
2022/06/17 00:47:35;;;;;;;2.00;1.90;;;;;;;15.93;63.33;102281.63;5116330;28;20066;-75
2022/06/17 00:50:09;;;;;;;2.40;2.20;;;;;;;15.88;63.45;102284.31;5116584;28;20068;-76
2022/06/17 00:52:56;;;;;;;2.15;1.98;;;;;;;15.85;63.76;102276.50;5115923;28;20093;-75
2022/06/17 00:55:39;;;;;;;2.50;2.20;;;;;;;15.83;63.95;102272.13;5116363;28;20433;-76
2022/06/17 00:58:19;;;;;;;2.42;2.22;;;;;;;15.81;64.06;102269.56;5116583;28;20030;-75
2022/06/17 01:00:44;;;;;;;2.00;1.90;;;;;;;15.79;63.84;102273.94;5115576;28;20027;-76
2022/06/17 01:03:16;;;;;;;2.70;2.20;;;;;;;15.76;64.52;102279.25;5117002;28;20020;-76
2022/06/17 01:05:59;;;;;;;2.40;2.10;;;;;;;15.73;64.23;102282.75;5116269;28;20277;-75
2022/06/17 01:11:30;;;;;;;3.22;2.40;;;;;;;15.69;64.03;102278.47;5116868;28;20177;-76
2022/06/17 01:13:56;;;;;;;2.30;2.10;;;;;;;15.67;64.23;102268.88;5115195;28;20523;-76
2022/06/17 01:16:30;;;;;;;2.50;2.30;;;;;;;15.66;64.08;102272.38;5116068;28;20115;-76
2022/06/17 01:19:00;;;;;;;2.95;2.60;;;;;;;15.64;64.11;102280.25;5116478;28;20051;-76
2022/06/17 01:21:35;;;;;;;3.65;2.40;;;;;;;15.62;64.53;102278.56;5115534;28;20020;-76
2022/06/17 01:24:02;;;;;;;2.53;2.33;;;;;;;15.59;64.90;102275.09;5115948;28;20111;-76
2022/06/17 01:26:27;;;;;;;2.60;2.40;;;;;;;15.56;64.60;102269.88;5116040;28;20118;-75
2022/06/17 01:28:53;;;;;;;2.80;2.50;;;;;;;15.53;64.39;102263.84;5114702;28;20185;-75
2022/06/17 01:31:18;;;;;;;2.87;2.40;;;;;;;15.51;65.26;102258.63;5115913;28;20416;-76
2022/06/17 01:33:44;;;;;;;3.27;2.60;;;;;;;15.46;67.07;102260.44;5115641;28;20106;-76
2022/06/17 01:36:25;;;;;;;2.40;2.20;;;;;;;15.41;65.59;102259.63;5115339;28;20379;-76
2022/06/17 01:38:56;;;;;;;2.63;2.42;;;;;;;15.37;65.27;102264.03;5115495;28;20099;-75
2022/06/17 01:41:28;;;;;;;2.55;2.35;;;;;;;15.36;65.34;102259.69;5116062;28;20380;-76
2022/06/17 01:43:56;;;;;;;2.58;2.28;;;;;;;15.34;65.16;102263.19;5114432;28;20168;-75
2022/06/17 01:46:43;;;;;;;2.78;2.50;;;;;;;15.32;65.52;102263.22;5114775;28;20084;-75
2022/06/17 01:49:12;;;;;;;2.80;2.60;;;;;;;15.28;65.14;102267.63;5114594;28;20023;-75
2022/06/17 01:51:43;;;;;;;3.40;2.70;;;;;;;15.27;65.22;102263.28;5115674;28;20043;-76
2022/06/17 01:54:18;;;;;;;3.13;2.63;;;;;;;15.24;65.63;102270.31;5115658;28;20076;-76
2022/06/17 01:56:45;;;;;;;3.03;2.47;;;;;;;15.22;65.54;102272.94;5114571;28;20036;-76
2022/06/17 01:59:18;;;;;;;2.80;2.40;;;;;;;15.20;65.57;102281.69;5115677;28;20020;-75
2022/06/17 02:01:47;;;;;;;2.80;2.50;;;;;;;15.16;65.59;102280.84;5114925;28;20481;-75
2022/06/17 02:04:17;;;;;;;3.95;2.58;;;;;;;15.14;65.68;102277.38;5115326;28;20020;-76
2022/06/17 02:06:50;;;;;;;2.90;2.60;;;;;;;15.13;65.56;102276.53;5094663;28;20507;-76
2022/06/17 02:09:15;;;;;;;3.03;2.72;;;;;;;15.11;65.64;102274.81;5095047;28;20028;-76
2022/06/17 02:11:41;;;;;;;2.80;2.60;;;;;;;15.06;65.91;102272.25;5093909;28;20024;-75
2022/06/17 02:14:09;;;;;;;3.67;2.80;;;;;;;15.04;65.86;102263.53;5094851;28;20032;-76
2022/06/17 02:16:38;;;;;;;3.75;2.83;;;;;;;15.03;65.92;102263.56;5094644;28;20031;-75
2022/06/17 02:19:04;;;;;;;4.82;3.08;;;;;;;15.02;65.73;102264.44;5099419;28;20051;-75
2022/06/17 02:21:46;;;;;;;2.88;2.67;;;;;;;15.02;66.04;102265.34;5115425;28;20031;-76
2022/06/17 02:24:12;;;;;;;2.97;2.67;;;;;;;15.00;66.03;102267.09;5114383;28;20072;-75
2022/06/17 02:26:40;;;;;;;3.30;2.90;;;;;;;14.97;66.05;102269.72;5114980;28;20031;-75
2022/06/17 02:29:09;;;;;;;3.90;2.80;;;;;;;14.95;66.46;102269.75;5114952;28;20369;-75
2022/06/17 02:31:35;;;;;;;3.42;2.80;;;;;;;14.93;66.36;102270.63;5114298;28;20020;-75
2022/06/17 02:34:06;;;;;;;3.03;2.67;;;;;;;14.88;66.64;102262.84;5114588;28;20361;-75
2022/06/17 02:36:44;;;;;;;2.88;2.60;;;;;;;14.86;66.07;102264.59;5114585;28;20096;-76
2022/06/17 02:39:12;;;;;;;3.15;2.85;;;;;;;14.84;66.23;102261.16;5114085;28;20030;-75
2022/06/17 02:41:39;;;;;;;2.92;2.63;;;;;;;14.82;66.90;102260.31;5114076;28;20032;-75
2022/06/17 02:44:11;;;;;;;3.00;2.70;;;;;;;14.80;66.75;102262.94;5114808;28;20027;-75
2022/06/17 02:46:40;;;;;;;3.95;2.80;;;;;;;14.78;66.62;102259.50;5113523;28;20023;-75
2022/06/17 02:49:16;;;;;;;3.00;2.60;;;;;;;14.76;66.87;102261.25;5094387;28;20028;-76
2022/06/17 02:51:43;;;;;;;3.15;2.85;;;;;;;14.74;66.99;102263.00;5090334;28;20016;-77
2022/06/17 02:54:14;;;;;;;3.10;2.80;;;;;;;14.73;67.25;102263.03;5108543;28;20104;-75
2022/06/17 02:56:44;;;;;;;2.80;2.60;;;;;;;14.71;67.04;102256.94;5113580;28;20131;-75
2022/06/17 02:59:45;;;;;;;3.60;2.83;;;;;;;14.69;67.25;102259.59;5113688;28;20027;-76
2022/06/17 03:02:20;;;;;;;3.17;2.60;;;;;;;14.68;67.43;102268.31;5096947;28;20071;-75
2022/06/17 03:04:46;;;;;;;2.72;2.47;;;;;;;14.65;67.37;102258.69;5113874;28;20023;-75
2022/06/17 03:07:16;;;;;;;3.23;2.73;;;;;;;14.66;67.44;102262.19;5113562;28;20038;-75
2022/06/17 03:09:41;;;;;;;3.22;2.80;;;;;;;14.66;67.52;102259.56;5113769;28;20317;-75
2022/06/17 03:12:12;;;;;;;3.43;2.90;;;;;;;14.65;67.21;102258.69;5113964;28;20059;-75
2022/06/17 03:14:52;;;;;;;3.10;2.80;;;;;;;14.63;67.48;102260.47;5112898;28;20024;-76
2022/06/17 03:17:23;;;;;;;3.70;2.83;;;;;;;14.63;67.84;102259.59;5113828;28;20100;-75
2022/06/17 03:19:53;;;;;;;3.35;2.90;;;;;;;14.63;67.63;102270.03;5113540;28;20118;-75
2022/06/17 03:22:18;;;;;;;3.17;2.80;;;;;;;14.60;67.82;102268.34;5113394;28;20416;-76
2022/06/17 03:25:05;;;;;;;3.20;2.80;;;;;;;14.58;67.79;102275.31;5113337;28;20055;-76
2022/06/17 03:28:00;;;;;;;3.00;2.70;;;;;;;14.56;67.87;102273.59;5112987;28;20031;-76
2022/06/17 03:30:48;;;;;;;2.85;2.60;;;;;;;14.52;67.91;102278.00;5110973;28;20044;-75
2022/06/17 03:33:21;;;;;;;3.45;2.90;;;;;;;14.50;67.95;102284.97;5113967;28;20051;-76
2022/06/17 03:35:51;;;;;;;3.38;2.90;;;;;;;14.51;67.70;102287.56;5112742;28;20066;-76
2022/06/17 03:38:38;;;;;;;3.28;2.83;;;;;;;14.54;68.33;102294.50;5113739;28;20051;-75
2022/06/17 03:41:16;;;;;;;3.33;2.90;;;;;;;14.56;68.23;102297.97;5113655;28;20387;-76
2022/06/17 03:44:00;;;;;;;4.18;3.20;;;;;;;14.59;68.38;102297.94;5113190;28;20398;-76
2022/06/17 03:46:27;;;;;;;3.25;2.70;;;;;;;14.62;67.93;102291.81;5113929;28;20106;-76
2022/06/17 03:49:06;;;;;;;3.20;2.90;;;;;;;14.66;68.03;102299.63;5112698;28;20464;-75
2022/06/17 03:51:35;;;;;;;3.05;2.70;;;;;;;14.70;68.53;102302.25;5113620;28;20030;-76
2022/06/17 03:54:01;;;;;;;2.88;2.58;;;;;;;14.70;68.49;102297.88;5113545;28;20028;-76
2022/06/17 03:56:33;;;;;;;2.80;2.60;;;;;;;14.74;69.38;102298.72;5113087;28;20540;-76
2022/06/17 03:59:03;;;;;;;2.60;2.40;;;;;;;14.73;69.60;102303.06;5113875;28;20039;-75
2022/06/17 04:01:34;;;;;;;2.50;2.17;;;;;;;14.76;69.01;102294.34;5113312;28;20028;-75
2022/06/17 04:04:05;;;;;;;2.60;2.40;;;;;;;14.77;69.90;102296.06;5112676;28;20022;-75
2022/06/17 04:06:35;;;;;;;2.55;2.35;;;;;;;14.80;68.65;102296.94;5093295;28;20020;-75
2022/06/17 04:09:14;;;;;;;2.47;2.28;;;;;;;14.86;68.74;102292.50;5093745;28;20036;-75
2022/06/17 04:11:45;;;;;;;2.70;2.40;;;;;;;14.89;68.41;102290.72;5112494;28;20019;-75
2022/06/17 04:14:21;;;;;;;2.47;2.28;;;;;;;14.94;69.16;102295.91;5111961;28;20043;-76
2022/06/17 04:17:14;;;;;;;2.40;2.20;;;;;;;14.98;68.34;102300.22;5112206;28;20023;-76
2022/06/17 04:19:43;;;;;;;1.92;1.83;;;;;;;15.01;68.45;102292.34;5112428;28;20488;-76
2022/06/17 04:22:26;;;;;;;2.40;2.20;;;;;;;15.07;68.27;102292.28;5113452;28;20589;-76
2022/06/17 04:24:57;;;;;;;2.50;2.30;;;;;;;15.11;68.10;102287.88;5112037;28;20031;-75
2022/06/17 04:27:23;;;;;;;2.78;2.40;;;;;;;15.11;68.24;102280.91;5113069;28;20032;-75
2022/06/17 04:29:53;;;;;;;2.20;2.00;;;;;;;15.14;68.46;102277.38;5113119;28;20047;-76
2022/06/17 04:32:28;;;;;;;2.58;2.38;;;;;;;15.17;69.85;102271.25;5112075;28;20114;-75
2022/06/17 04:34:53;;;;;;;2.20;2.10;;;;;;;15.20;68.98;102281.69;5112871;28;20061;-75
2022/06/17 04:37:21;;;;;;;2.10;2.00;;;;;;;15.22;68.72;102275.53;5113687;28;20024;-75
2022/06/17 04:39:51;;;;;;;2.50;2.30;;;;;;;15.26;70.69;102277.25;5111786;28;20032;-75
2022/06/17 04:42:21;;;;;;;2.58;2.38;;;;;;;15.29;68.65;102271.09;5112718;28;20028;-75
2022/06/17 04:44:50;;;;;;;2.33;2.13;;;;;;;15.35;68.73;102272.78;5111961;28;20445;-75
2022/06/17 04:47:21;;;;;;;2.70;2.20;;;;;;;15.40;68.70;102276.22;5112868;28;20122;-75
2022/06/17 04:49:52;;;;;;;2.28;2.00;;;;;;;15.43;68.74;102265.69;5112943;28;20016;-75
2022/06/17 04:52:34;;;;;;;2.45;2.20;;;;;;;15.48;67.88;102268.28;5112294;28;20074;-75
2022/06/17 04:55:01;;;;;;;2.88;2.10;;;;;;;15.52;69.32;102259.47;5113145;28;20414;-76
2022/06/17 04:57:29;;;;;;;1.92;1.83;;;;;;;15.56;68.99;102255.94;5113246;28;20032;-75
2022/06/17 04:59:58;;;;;;;2.30;2.10;;;;;;;15.60;68.12;102255.88;5111850;28;20020;-75
2022/06/17 05:02:29;;;;;;;2.35;2.15;;;;;;;15.65;69.24;102260.19;5112730;28;20072;-75
2022/06/17 05:05:03;;;;;;;3.75;2.90;;;;;;;15.70;68.96;102258.38;5112521;28;20502;-75
2022/06/17 05:07:37;;;;;;;3.22;2.53;;;;;;;15.76;68.29;102258.28;5111903;28;20026;-75
2022/06/17 05:10:07;;;;;;;2.30;2.10;;;;;;;15.82;67.99;102262.56;5112714;28;20554;-78
2022/06/17 05:12:42;;;;;;;2.63;2.40;;;;;;;15.89;68.24;102257.22;5112868;28;20547;-76
2022/06/17 05:15:16;;;;;;;2.75;2.42;;;;;;;15.98;68.93;102265.84;5112802;28;20153;-76
2022/06/17 05:17:42;;;;;;;2.22;2.03;;;;;;;16.04;68.33;102261.38;5112053;28;20369;-76
2022/06/17 05:20:12;;;;;;;2.50;2.30;;;;;;;16.10;68.62;102263.03;5114659;28;20027;-76
2022/06/17 05:22:40;;;;;;;2.10;2.00;;;;;;;16.16;67.66;102252.47;5116263;28;20030;-76
2022/06/17 05:25:30;;;;;;;2.97;2.40;;;;;;;16.23;68.73;102241.88;5115812;28;20031;-76
2022/06/17 05:27:55;;;;;;;4.00;2.83;;;;;;;16.32;68.82;102257.47;5115107;28;20038;-76
2022/06/17 05:30:21;;;;;;;3.47;2.80;;;;;;;16.36;67.77;102265.25;5115640;28;20016;-76
2022/06/17 05:32:49;;;;;;;3.20;2.50;;;;;;;16.43;66.46;102265.13;5115953;28;20027;-76
2022/06/17 05:35:15;;;;;;;2.50;2.30;;;;;;;16.49;68.15;102249.31;5115582;28;20024;-76
2022/06/17 05:37:40;;;;;;;2.60;2.40;;;;;;;16.53;67.67;102248.34;5116075;28;20097;-76
2022/06/17 05:40:08;;;;;;;3.30;2.80;;;;;;;16.57;68.80;102262.25;5116125;28;20431;-76
2022/06/17 05:42:35;;;;;;;4.20;3.40;;;;;;;16.60;68.41;102268.34;5115224;28;20046;-76
2022/06/17 05:45:00;;;;;;;;;;;;;;;16.65;68.75;102266.47;5116166;28;20035;-76
2022/06/17 05:47:28;;;;;;;3.63;3.07;;;;;;;16.72;67.93;102256.75;5116133;28;19912;-76
2022/06/17 05:49:53;;;;;;;3.50;2.70;;;;;;;16.83;67.98;102249.53;5115122;28;20464;-76
2022/06/17 05:52:18;;;;;;;3.20;2.60;;;;;;;16.95;67.33;102255.47;5114772;28;20030;-76
2022/06/17 05:54:45;;;;;;;3.60;2.97;;;;;;;17.03;67.01;102245.69;5114171;28;20429;-76
2022/06/17 05:57:10;;;;;;;;;;;;;;;17.12;65.96;102249.88;5115108;28;20023;-76
2022/06/17 05:59:36;;;;;;;4.97;3.20;;;;;;;17.21;65.15;102246.22;5115775;28;19912;-77
2022/06/17 06:02:01;;;;;;;5.67;3.20;;;;;;;17.34;67.33;102244.19;5114615;28;20077;-77
2022/06/17 06:04:26;;;;;;;3.97;3.20;;;;;;;17.55;65.52;102238.47;5115538;28;20027;-77
2022/06/17 06:06:52;;;;;;;4.63;3.43;;;;;;;17.73;65.82;102244.22;5114999;28;20032;-77
2022/06/17 06:09:18;;;;;;;7.20;4.27;;;;;;;17.79;65.05;102232.72;5114680;28;20104;-77
2022/06/17 06:11:43;;;;;;;4.68;3.50;;;;;;;17.81;65.46;102218.63;5114800;28;20055;-77
2022/06/17 06:14:08;;;;;;;3.73;3.03;;;;;;;17.84;66.66;102220.31;5115187;28;20080;-77
2022/06/17 06:16:34;;;;;;;3.63;3.20;;;;;;;17.85;65.15;102212.38;5114363;28;20063;-77
2022/06/17 06:19:00;;;;;;;3.60;3.00;;;;;;;17.85;65.61;102219.41;5114729;28;20051;-77
2022/06/17 06:21:26;;;;;;;3.60;3.17;;;;;;;17.86;64.32;102232.50;5114705;28;20027;-77
2022/06/17 06:23:51;;;;;;;4.18;3.38;;;;;;;17.87;64.25;102221.09;5113898;28;20020;-77
2022/06/17 06:26:18;;;;;;;4.40;3.20;;;;;;;17.90;64.74;102228.06;5115160;28;20030;-77
2022/06/17 06:28:44;;;;;;;3.50;2.50;;;;;;;17.94;64.17;102229.69;5114362;28;20049;-77
2022/06/17 06:31:21;;;;;;;3.03;2.63;;;;;;;18.02;64.28;102232.19;5113526;28;20031;-77
2022/06/17 06:33:47;;;;;;;3.90;3.03;;;;;;;18.08;64.65;102236.41;5114633;28;20050;-76
2022/06/17 06:36:12;;;;;;;6.50;3.67;;;;;;;18.15;64.94;102238.88;5114707;28;20468;-76
2022/06/17 06:38:47;;;;;;;3.60;3.10;;;;;;;18.24;64.67;102239.53;5113699;28;20041;-76
2022/06/17 06:41:13;;;;;;;3.97;3.30;;;;;;;18.32;64.17;102243.69;5114767;28;20054;-76
2022/06/17 06:43:39;;;;;;;3.00;2.70;;;;;;;18.38;64.20;102250.56;5114375;28;20055;-76
2022/06/17 06:46:08;;;;;;;3.60;2.90;;;;;;;18.43;64.51;102243.41;5113258;28;20032;-75
2022/06/17 06:48:33;;;;;;;4.70;3.33;;;;;;;18.47;63.35;102247.69;5114772;28;20027;-74
2022/06/17 06:50:58;;;;;;;3.87;3.33;;;;;;;18.50;63.60;102234.47;5113691;28;20087;-75
2022/06/17 06:53:24;;;;;;;4.23;3.27;;;;;;;18.57;63.25;102236.91;5102407;28;20032;-74
2022/06/17 06:55:50;;;;;;;6.23;3.30;;;;;;;18.60;63.58;102232.44;5111912;28;20115;-75
2022/06/17 06:58:18;;;;;;;5.57;3.38;;;;;;;18.72;62.45;102233.00;5114147;27;20038;-75
2022/06/17 07:00:46;;;;;;;4.18;3.40;;;;;;;18.85;63.03;102246.69;5121808;27;20019;-75
2022/06/17 07:03:12;;;;;;;3.92;3.10;;;;;;;19.11;63.48;102251.25;5116313;27;20050;-75
2022/06/17 07:05:41;;;;;;;4.30;3.30;;;;;;;19.41;62.74;102253.88;5112998;28;20103;-76
2022/06/17 07:08:07;;;;;;;5.32;3.67;;;;;;;19.78;62.12;102254.50;5112944;28;20035;-75
2022/06/17 07:10:35;;;;;;;5.53;4.07;;;;;;;20.14;61.21;102248.97;5112790;28;20023;-75
2022/06/17 07:13:01;;;;;;;4.78;3.78;;;;;;;20.45;60.12;102256.72;5111004;28;20504;-75
2022/06/17 07:15:27;;;;;;;;;;;;;;;20.78;59.12;102250.31;5114772;28;20035;-75
2022/06/17 07:18:03;;;;;;;;;;;;;;;20.98;59.31;102249.59;5114018;28;20006;-75
2022/06/17 07:20:36;;;;;;;6.30;4.50;;;;;;;21.24;57.13;102248.63;5113426;28;20278;-75
2022/06/17 07:23:10;;;;;;;8.95;5.00;;;;;;;21.34;56.81;102237.69;5113952;28;20383;-75
2022/06/17 07:25:37;;;;;;;6.93;4.10;;;;;;;21.44;57.61;102239.94;5113882;28;20028;-75
2022/06/17 07:28:03;;;;;;;6.63;4.25;;;;;;;21.59;57.51;102235.84;5113402;28;20031;-76
2022/06/17 07:30:29;;;;;;;7.18;3.90;;;;;;;21.80;57.49;102237.69;5113596;28;20053;-75
2022/06/17 07:32:55;;;;;;;4.05;3.40;;;;;;;21.99;56.97;102236.00;5113063;28;20036;-75
2022/06/17 07:35:21;;;;;;;4.90;3.40;;;;;;;22.09;56.04;102228.56;5113090;28;20058;-76
2022/06/17 07:40:30;;;;;;;4.55;3.30;;;;;;;22.24;56.11;102235.00;5113220;28;20046;-76
2022/06/17 07:42:56;;;;;;;4.25;3.25;;;;;;;22.36;55.94;102221.25;5113242;28;20028;-75
2022/06/17 07:45:24;;;;;;;3.78;3.10;;;;;;;22.51;54.85;102240.06;5113572;28;20024;-76
2022/06/17 07:47:50;;;;;;;3.10;2.70;;;;;;;22.65;55.66;102240.28;5112361;28;20047;-75
2022/06/17 07:50:20;;;;;;;3.10;2.67;;;;;;;22.88;54.99;102251.63;5113878;28;20039;-75
2022/06/17 07:52:52;;;;;;;3.42;2.70;;;;;;;23.01;52.71;102251.06;5113346;28;20040;-75
2022/06/17 07:55:17;;;;;;;4.72;3.40;;;;;;;23.07;49.16;102249.00;5112753;28;20039;-75
2022/06/17 07:57:44;;;;;;;5.53;3.13;;;;;;;23.06;52.71;102249.09;5113172;28;20026;-76
2022/06/17 08:00:28;;;;;;;3.45;2.80;;;;;;;23.08;50.40;102244.59;5112922;28;20020;-75
2022/06/17 08:02:54;;;;;;;3.63;2.80;;;;;;;23.14;51.87;102244.28;5112570;28;20062;-76
2022/06/17 08:05:21;;;;;;;3.77;2.70;;;;;;;23.22;52.58;102239.50;5113459;28;20055;-76
2022/06/17 08:07:47;;;;;;;2.72;2.50;;;;;;;23.38;52.59;102246.75;5112840;28;20035;-76
2022/06/17 08:10:19;;;;;;;2.92;2.50;;;;;;;23.47;52.29;102253.41;5112814;28;20028;-76
2022/06/17 08:12:44;;;;;;;2.70;2.50;;;;;;;23.61;49.46;102250.94;5112868;28;20031;-76
2022/06/17 08:15:12;;;;;;;2.97;2.40;;;;;;;23.69;51.06;102259.41;5113086;28;20036;-76
2022/06/17 08:17:40;;;;;;;3.45;2.60;;;;;;;23.83;48.52;102255.19;5112332;28;20016;-76
2022/06/17 08:20:14;;;;;;;3.08;2.40;;;;;;;23.98;51.44;102257.13;5113279;28;20495;-76
2022/06/17 08:22:41;;;;;;;2.15;2.05;;;;;;;24.19;49.68;102260.50;5111920;28;20020;-76
2022/06/17 08:25:06;;;;;;;2.63;2.10;;;;;;;24.34;48.19;102257.97;5113071;28;20077;-76
2022/06/17 08:27:32;;;;;;;2.88;2.25;;;;;;;24.44;48.30;102259.22;5113083;28;20035;-76
2022/06/17 08:29:57;;;;;;;5.13;2.80;;;;;;;24.52;46.70;102266.78;5112190;28;20114;-76
2022/06/17 08:35:06;;;;;;;2.33;2.10;;;;;;;24.60;47.11;102253.13;5113236;28;20038;-76
2022/06/17 08:37:33;;;;;;;4.07;2.60;;;;;;;24.72;45.28;102241.88;5112405;28;20028;-76
2022/06/17 08:39:59;;;;;;;2.72;2.30;;;;;;;24.85;47.84;102231.44;5113040;28;20277;-76
2022/06/17 08:42:43;;;;;;;2.30;2.10;;;;;;;24.97;47.71;102225.47;5112694;28;20499;-76
2022/06/17 08:45:34;;;;;;;1.98;1.88;;;;;;;25.23;46.68;102232.94;5112702;28;20080;-76
2022/06/17 08:48:15;;;;;;;2.53;1.98;;;;;;;25.39;47.21;102227.66;5112566;28;20035;-76
2022/06/17 08:51:18;;;;;;;2.00;1.90;;;;;;;25.46;47.87;102233.47;5111964;28;20031;-76
2022/06/17 08:54:05;;;;;;;2.00;1.80;;;;;;;25.45;42.98;102237.94;5040839;28;20442;-76
2022/06/17 08:56:39;;;;;;;3.05;2.20;;;;;;;25.36;44.02;102241.94;5116539;28;20032;-76
2022/06/17 08:59:35;;;;;;;3.90;2.30;;;;;;;25.32;43.50;102243.06;5116495;28;20028;-77
2022/06/17 09:02:21;;;;;;;;;;;;;;;25.29;44.99;102238.78;5116724;28;20475;-76
2022/06/17 09:05:02;;;;;;;3.03;2.50;;;;;;;25.41;45.70;102239.94;5115369;28;19916;-76
2022/06/17 09:07:49;;;;;;;4.15;2.40;;;;;;;25.51;44.60;102247.38;5116697;28;20023;-76
2022/06/17 09:10:37;;;;;;;2.58;2.20;;;;;;;25.70;42.98;102253.34;5116618;28;20032;-77
2022/06/17 09:13:27;;;;;;;2.50;2.22;;;;;;;25.87;43.57;102263.00;5115764;28;20024;-76
2022/06/17 09:16:03;;;;;;;3.78;2.80;;;;;;;25.98;42.92;102249.09;5115908;28;20367;-77
2022/06/17 09:18:34;;;;;;;4.13;2.60;;;;;;;26.02;41.19;102231.16;5115779;28;20073;-76
2022/06/17 09:21:12;;;;;;;5.05;3.08;;;;;;;26.07;42.88;102229.06;5115426;28;20104;-76
2022/06/17 09:23:39;;;;;;;4.15;2.70;;;;;;;26.12;42.49;102224.38;5115910;28;20016;-77
2022/06/17 09:26:15;;;;;;;2.55;2.30;;;;;;;26.25;42.30;102223.63;5115351;28;20031;-77
2022/06/17 09:28:48;;;;;;;3.30;2.60;;;;;;;26.35;42.41;102230.09;5116041;28;20466;-77
2022/06/17 09:31:25;;;;;;;4.40;2.75;;;;;;;26.43;40.92;102234.97;5116102;28;20027;-76
2022/06/17 09:34:06;;;;;;;3.40;2.63;;;;;;;26.44;40.42;102240.19;5115141;28;20071;-76
2022/06/17 09:36:51;;;;;;;4.07;2.55;;;;;;;26.48;39.99;102236.41;5115798;28;20085;-76
2022/06/17 09:39:55;;;;;;;2.60;2.38;;;;;;;26.61;38.67;102225.00;5115889;28;20399;-76
2022/06/17 09:42:26;;;;;;;3.23;2.50;;;;;;;26.73;38.65;102220.69;5115749;28;20024;-76
2022/06/17 09:44:57;;;;;;;4.13;2.40;;;;;;;26.81;39.88;102229.97;5115994;28;20059;-77
2022/06/17 09:47:40;;;;;;;3.00;2.25;;;;;;;26.90;37.55;102231.22;5115043;28;20065;-76
2022/06/17 09:50:25;;;;;;;2.88;2.20;;;;;;;27.00;41.95;102234.13;5115878;28;20034;-77
2022/06/17 09:53:13;;;;;;;3.20;2.30;;;;;;;27.10;38.99;102237.06;5114996;28;20529;-77
2022/06/17 09:55:44;;;;;;;3.15;2.40;;;;;;;27.15;37.79;102234.94;5114779;28;20019;-76
2022/06/17 09:58:28;;;;;;;5.10;2.78;;;;;;;27.23;38.97;102235.34;5115822;28;20034;-77
2022/06/17 10:00:56;;;;;;;2.58;2.30;;;;;;;27.31;38.54;102232.16;5114983;28;20051;-76
2022/06/17 10:03:25;;;;;;;3.50;2.40;;;;;;;27.40;40.11;102231.56;5114971;28;20552;-76
2022/06/17 10:06:05;;;;;;;3.22;2.40;;;;;;;27.53;39.64;102225.44;5113920;28;20032;-76
2022/06/17 10:08:32;;;;;;;2.40;2.20;;;;;;;27.62;40.05;102214.19;5114707;28;20122;-77
2022/06/17 10:11:13;;;;;;;2.92;2.38;;;;;;;27.72;39.74;102206.41;5114913;28;20035;-76
2022/06/17 10:13:59;;;;;;;3.78;2.30;;;;;;;27.85;38.80;102207.31;5113690;28;20028;-76
2022/06/17 10:19:50;;;;;;;3.30;2.40;;;;;;;28.02;36.05;102194.63;5115227;28;20051;-76
2022/06/17 10:22:43;;;;;;;3.28;2.30;;;;;;;28.04;37.34;102196.22;5114664;28;20360;-76
2022/06/17 10:25:30;;;;;;;2.33;2.13;;;;;;;28.10;37.12;102191.44;5115206;28;20073;-76
2022/06/17 10:28:07;;;;;;;2.30;2.10;;;;;;;28.17;37.99;102182.06;5114464;28;20542;-76
2022/06/17 10:30:46;;;;;;;2.17;1.98;;;;;;;28.30;37.94;102192.75;5114352;28;20386;-77
2022/06/17 10:33:13;;;;;;;2.90;2.13;;;;;;;28.36;36.46;102185.16;5114848;28;20030;-77
2022/06/17 10:35:41;;;;;;;2.78;1.90;;;;;;;28.42;33.90;102188.38;5114194;28;20023;-76
2022/06/17 10:38:12;;;;;;;2.60;2.10;;;;;;;28.40;36.65;102175.13;5114207;28;20110;-77
2022/06/17 10:40:40;;;;;;;2.65;2.17;;;;;;;28.43;37.08;102185.59;5114358;28;20019;-77
2022/06/17 10:43:12;;;;;;;2.70;2.00;;;;;;;28.57;37.15;102184.59;5114635;28;20023;-77
2022/06/17 10:45:38;;;;;;;3.10;2.30;;;;;;;28.60;35.47;102189.72;5113752;28;20425;-77
2022/06/17 10:48:23;;;;;;;;;;;;;;;28.70;34.63;102178.38;5115096;28;20020;-77
2022/06/17 10:50:51;;;;;;;1.80;1.70;;;;;;;28.82;36.99;102183.72;5113673;28;20381;-76
2022/06/17 10:53:34;;;;;;;2.38;2.13;;;;;;;28.99;34.97;102178.16;5114744;28;20106;-77
2022/06/17 10:56:04;;;;;;;2.75;1.88;;;;;;;29.10;36.81;102181.72;5114105;28;20463;-77
2022/06/17 10:58:33;;;;;;;2.10;1.80;;;;;;;29.21;32.58;102177.41;5113807;28;20543;-77
2022/06/17 11:01:05;;;;;;;3.38;1.90;;;;;;;29.27;33.97;102171.63;5114234;28;20026;-77
2022/06/17 11:03:36;;;;;;;2.47;2.10;;;;;;;29.29;35.69;102177.66;5114060;28;20024;-77
2022/06/17 11:06:04;;;;;;;3.25;2.00;;;;;;;29.26;32.13;102169.91;5113785;28;20093;-77
2022/06/17 11:08:37;;;;;;;2.00;1.80;;;;;;;29.38;34.22;102171.69;5114005;28;20459;-77
2022/06/17 11:13:52;;;;;;;1.77;1.67;;;;;;;29.66;33.08;102153.53;5113856;28;20042;-77
2022/06/17 11:16:19;;;;;;;;;;;;;;;29.73;34.59;102152.09;5114556;28;20024;-77
2022/06/17 11:18:53;;;;;;;1.90;1.80;;;;;;;29.75;33.05;102152.00;5112638;28;20326;-77
2022/06/17 11:21:23;;;;;;;1.80;1.70;;;;;;;29.73;33.04;102152.09;5113971;28;20411;-77
2022/06/17 11:23:51;;;;;;;1.80;1.70;;;;;;;29.70;33.41;102147.00;5113468;28;20043;-77
2022/06/17 11:26:20;;;;;;;1.98;1.80;;;;;;;29.72;31.36;102139.69;5113328;28;20032;-77
2022/06/17 11:28:49;;;;;;;1.90;1.80;;;;;;;29.69;32.70;102139.06;5113728;28;20027;-77
2022/06/17 11:31:30;;;;;;;2.13;1.90;;;;;;;29.68;31.87;102137.38;5113319;28;20028;-78
2022/06/17 11:34:11;;;;;;;1.95;1.80;;;;;;;29.69;32.30;102128.38;5110415;28;20038;-76
2022/06/17 11:36:56;;;;;;;1.52;1.50;;;;;;;29.84;32.74;102129.00;5113058;28;20485;-77
2022/06/17 11:39:34;;;;;;;1.40;1.40;;;;;;;30.03;33.13;102115.94;5112994;28;20532;-77
2022/06/17 11:42:13;;;;;;;2.92;1.80;;;;;;;30.04;30.33;102114.97;5108915;28;20030;-76
2022/06/17 11:44:52;;;;;;;1.88;1.77;;;;;;;30.07;32.29;102115.69;5112743;28;20531;-75
2022/06/17 11:47:21;;;;;;;1.70;1.60;;;;;;;30.19;33.15;102114.72;5112876;28;20031;-75
2022/06/17 11:49:47;;;;;;;1.35;1.35;;;;;;;30.38;33.64;102111.41;5113470;28;20042;-76
2022/06/17 11:52:26;;;;;;;1.75;1.65;;;;;;;30.49;32.52;102110.56;5113370;28;20471;-75
2022/06/17 11:54:54;;;;;;;1.50;1.40;;;;;;;30.58;33.03;102112.53;5112732;28;20024;-75
2022/06/17 11:57:34;;;;;;;1.60;1.42;;;;;;;30.61;32.56;102095.34;5113463;28;20426;-76
2022/06/17 12:00:19;;;;;;;1.60;1.50;;;;;;;30.75;31.56;102094.19;5113123;28;20031;-76
2022/06/17 12:03:00;;;;;;;1.42;1.33;;;;;;;30.89;31.45;102093.09;5112707;28;20051;-76
2022/06/17 12:05:28;;;;;;;1.70;1.60;;;;;;;30.92;31.79;102090.13;5112883;28;20027;-76